METAR Data
IDs: Format: Raw Decoded Include TAF

Data at: 0057 UTC 12 May 2021

KASW 120035Z AUTO 33008KT 10SM CLR 08/M02 A3033 RMK AO2
KASW 120015Z AUTO 33007KT 10SM CLR 08/M03 A3032 RMK AO2
KASW 112355Z AUTO 34009KT 10SM CLR 09/M02 A3031 RMK AO2
KASW 112335Z AUTO 33010KT 10SM CLR 09/M02 A3031 RMK AO2
KASW 112315Z AUTO 34009G14KT 10SM CLR 10/M02 A3031 RMK AO2
KASW 112255Z AUTO 36010G14KT 10SM CLR 10/M02 A3030 RMK AO2
KASW 112235Z AUTO 36010G16KT 10SM CLR 10/M02 A3029 RMK AO2
KASW 112215Z AUTO 34009G15KT 10SM CLR 10/M01 A3029 RMK AO2
KASW 112155Z AUTO 34009G17KT 10SM CLR 10/M02 A3029 RMK AO2
KASW 112135Z AUTO 32009G20KT 10SM CLR 10/M02 A3029 RMK AO2
KASW 112115Z AUTO 34012G17KT 10SM SCT050 10/M02 A3029 RMK AO2
KASW 112055Z AUTO 33010G17KT 10SM SCT050 10/M01 A3029 RMK AO2
KASW 112035Z AUTO 33009G18KT 297V357 10SM SCT055 11/M01 A3029 RMK AO2
KASW 112015Z AUTO 32010G16KT 297V357 10SM SCT055 11/M01 A3030 RMK AO2
KASW 111955Z AUTO 35011G17KT 297V017 10SM SCT055 11/M01 A3030 RMK AO2
KASW 111935Z AUTO 33011G18KT 10SM SCT060 11/M01 A3030 RMK AO2
KASW 111915Z AUTO 35011G19KT 10SM SCT060 11/M01 A3030 RMK AO2
KASW 111900Z AUTO 35013G18KT 10SM SCT060 12/00 A3031 RMK AO2
KASW 111835Z AUTO 34013G22KT 10SM BKN060 11/M01 A3031 RMK AO2
KASW 111815Z AUTO 34010G18KT 10SM BKN060 12/00 A3032 RMK AO2
KASW 111755Z AUTO 34012G19KT 10SM BKN060 11/M01 A3032 RMK AO2
KASW 111735Z AUTO 33013G16KT 10SM BKN060 BKN070 10/M01 A3032 RMK AO2
KASW 111715Z AUTO 36009G17KT 10SM SCT060 10/M01 A3033 RMK AO2
KASW 111655Z AUTO 34008G16KT 10SM BKN050 10/M01 A3033 RMK AO2
KASW 111635Z AUTO 01010G19KT 10SM BKN055 10/M01 A3033 RMK AO2
KASW 111615Z AUTO 34010G15KT 307V027 10SM SCT048 SCT055 10/00 A3033 RMK AO2
KASW 111555Z AUTO 36012G19KT 10SM SCT048 10/00 A3033 RMK AO2
KASW 111535Z AUTO 32013G17KT 10SM SCT044 09/M01 A3033 RMK AO2
KASW 111515Z AUTO 34007G14KT 10SM CLR 09/00 A3033 RMK AO2
KASW 111455Z AUTO 36011G16KT 10SM CLR 08/M01 A3032 RMK AO2
KASW 111435Z AUTO 36008KT 10SM CLR 08/00 A3032 RMK AO2
KASW 111415Z AUTO 36010G14KT 10SM CLR 07/M01 A3032 RMK AO2
KASW 111355Z AUTO 01009KT 10SM CLR 07/00 A3032 RMK AO2
KASW 111335Z AUTO 03008KT 10SM CLR 07/00 A3031 RMK AO2
KASW 111315Z AUTO 02008KT 10SM CLR 06/00 A3030 RMK AO2
KASW 111255Z AUTO 02010KT 10SM CLR 06/00 A3030 RMK AO2
KASW 111235Z AUTO 03005KT 10SM CLR 05/00 A3030 RMK AO2
KASW 111215Z AUTO 04005KT 10SM CLR 04/00 A3030 RMK AO2
KASW 111155Z AUTO 00000KT 10SM CLR 03/00 A3029 RMK AO2
KASW 111135Z AUTO 02003KT 10SM CLR 02/00 A3029 RMK AO2
KASW 111115Z AUTO 00000KT 10SM CLR 02/00 A3028 RMK AO2
KASW 111055Z AUTO 00000KT 10SM CLR 02/00 A3027 RMK AO2
KASW 111035Z AUTO 01003KT 10SM BKN110 02/M01 A3026 RMK AO2
KASW 111015Z AUTO 02003KT 10SM OVC110 02/00 A3025 RMK AO2
KASW 110955Z AUTO 00000KT 10SM BKN110 02/00 A3025 RMK AO2
KASW 110935Z AUTO 00000KT 10SM SCT090 02/00 A3024 RMK AO2
KASW 110915Z AUTO 00000KT 10SM BKN090 02/00 A3023 RMK AO2
KASW 110855Z AUTO 00000KT 10SM BKN090 BKN120 02/00 A3023 RMK AO2
KASW 110835Z AUTO 00000KT 10SM BKN090 BKN120 03/00 A3022 RMK AO2
KASW 110815Z AUTO 01003KT 10SM SCT120 03/00 A3021 RMK AO2
KASW 110755Z AUTO 36004KT 10SM SCT120 03/00 A3021 RMK AO2
KASW 110735Z AUTO 36003KT 10SM SCT120 03/00 A3021 RMK AO2
KASW 110715Z AUTO 00000KT 10SM CLR 03/M01 A3021 RMK AO2
KASW 110655Z AUTO 35003KT 10SM CLR 03/M01 A3021 RMK AO2
KASW 110635Z AUTO 34003KT 10SM CLR 04/M01 A3021 RMK AO2
KASW 110615Z AUTO 00000KT 10SM CLR 04/M01 A3021 RMK AO2
KASW 110555Z AUTO 36006KT 10SM SCT120 05/M01 A3020 RMK AO2
KASW 110535Z AUTO 35004KT 10SM CLR 05/M02 A3020 RMK AO2
KASW 110515Z AUTO 35003KT 10SM SCT120 05/M02 A3020 RMK AO2
KASW 110455Z AUTO 35003KT 10SM BKN120 05/M01 A3020 RMK AO2
KASW 110435Z AUTO 35003KT 10SM BKN110 06/M01 A3020 RMK AO2
KASW 110415Z AUTO 34005KT 10SM OVC110 06/M01 A3020 RMK AO2
KASW 110355Z AUTO 34005KT 10SM BKN120 07/00 A3020 RMK AO2
KASW 110335Z AUTO 34006KT 10SM SCT120 07/00 A3019 RMK AO2
KASW 110315Z AUTO 34003KT 10SM SCT090 BKN120 07/00 A3019 RMK AO2
KASW 110255Z AUTO 00000KT 10SM SCT090 BKN110 07/00 A3019 RMK AO2
KASW 110235Z AUTO 35005KT 10SM SCT046 OVC110 07/01 A3019 RMK AO2
KASW 110215Z AUTO 35005KT 10SM BKN044 BKN085 OVC100 08/01 A3019 RMK AO2
KASW 110155Z AUTO 35005KT 10SM BKN044 BKN050 OVC100 08/01 A3017 RMK AO2
KASW 110135Z AUTO 33007KT 10SM OVC044 08/01 A3017 RMK AO2
KASW 110115Z AUTO 35005KT 10SM BKN048 OVC095 09/02 A3015 RMK AO2
KASW 110055Z AUTO 35005KT 10SM OVC048 09/02 A3015 RMK AO2
KASW 110035Z AUTO 36005KT 10SM OVC048 09/02 A3014 RMK AO2
KASW 110015Z AUTO 36005KT 10SM BKN046 10/02 A3014 RMK AO2
KASW 102355Z AUTO 34006KT 10SM SCT049 10/02 A3014 RMK AO2
KASW 102335Z AUTO 35007KT 10SM BKN044 OVC050 10/02 A3013 RMK AO2
KASW 102315Z AUTO 36005KT 10SM OVC042 10/02 A3013 RMK AO2
KASW 102255Z AUTO 01007KT 10SM OVC042 11/02 A3012 RMK AO2
KASW 102235Z AUTO 03007KT 10SM BKN045 OVC055 12/02 A3012 RMK AO2
KASW 102215Z AUTO 35006KT 10SM BKN055 11/02 A3012 RMK AO2
KASW 102155Z AUTO 35008KT 10SM BKN055 BKN070 BKN080 12/03 A3011 RMK AO2
KASW 102135Z AUTO 34007KT 10SM BKN060 OVC065 11/02 A3012 RMK AO2
KASW 102115Z AUTO 33006KT 10SM BKN060 OVC075 12/02 A3012 RMK AO2
KASW 102055Z AUTO 31006KT 10SM BKN050 OVC075 12/02 A3012 RMK AO2
KASW 102035Z AUTO 34005KT 10SM OVC050 12/02 A3012 RMK AO2
KASW 102015Z AUTO 32004KT 10SM BKN050 12/01 A3012 RMK AO2
KASW 101955Z AUTO 31006KT 10SM BKN050 12/02 A3012 RMK AO2
KASW 101935Z AUTO 32008KT 10SM OVC050 12/01 A3013 RMK AO2
KASW 101915Z AUTO 28008KT 10SM OVC050 12/02 A3012 RMK AO2
KASW 101855Z AUTO 31004KT 10SM SCT042 BKN055 OVC085 11/01 A3013 RMK AO2
KASW 101835Z AUTO 32006KT 10SM -RA SCT041 BKN065 OVC070 11/01 A3013 RMK AO2
KASW 101815Z AUTO 29007G17KT 10SM -DZ BKN048 OVC060 11/00 A3013 RMK AO2
KASW 101755Z AUTO 28010KT 10SM SCT050 BKN060 BKN070 11/01 A3014 RMK AO2
KASW 101735Z AUTO 27007KT 10SM -DZ BKN048 OVC060 11/02 A3014 RMK AO2
KASW 101715Z AUTO 28010KT 10SM -RA BKN048 BKN060 OVC065 11/02 A3014 RMK AO2
KASW 101655Z AUTO 29006KT 10SM BKN060 BKN070 11/02 A3014 RMK AO2
KASW 101635Z AUTO 32006KT 10SM SCT060 SCT070 11/03 A3013 RMK AO2
KASW 101615Z AUTO 33004KT 10SM BKN070 11/03 A3013 RMK AO2
KASW 101555Z AUTO 31005KT 10SM BKN070 BKN085 11/03 A3013 RMK AO2
KASW 101535Z AUTO 36004KT 10SM SCT070 SCT085 SCT120 10/03 A3012 RMK AO2
KASW 101515Z AUTO 32004KT 10SM SCT120 10/03 A3012 RMK AO2
KASW 101455Z AUTO 30004KT 10SM SCT070 BKN120 10/03 A3012 RMK AO2
KASW 101435Z AUTO 34003KT 10SM SCT070 BKN120 09/02 A3012 RMK AO2
KASW 101415Z AUTO 29007KT 10SM SCT070 SCT120 08/03 A3012 RMK AO2
KASW 101355Z AUTO 30004KT 10SM SCT070 08/02 A3011 RMK AO2
KASW 101335Z AUTO 25004KT 10SM SCT080 07/02 A3011 RMK AO2
KASW 101315Z AUTO 23003KT 10SM BKN080 07/03 A3011 RMK AO2